Time;durP1;ratioP1;P1;durP2;ratioP2;P2;SDS_P1;SDS_P2;PMS_P1;PMS_P2;Temp;Humidity;BMP_temperature;BMP_pressure;BME280_temperature;BME280_humidity;BME280_pressure;Samples;Min_cycle;Max_cycle;Signal;HPM_P1;HPM_P2
2022/09/26 00:01:31;;;;;;;3.33;3.03;;;11.70;99.90;;;;;;5040919;28;20202;-86
2022/09/26 00:07:32;;;;;;;2.97;2.60;;;11.80;99.90;;;;;;5030877;28;20304;-86
2022/09/26 00:10:03;;;;;;;3.50;2.85;;;11.80;99.90;;;;;;5040087;28;20201;-86
2022/09/26 00:13:20;;;;;;;2.78;2.58;;;11.80;99.90;;;;;;5040018;28;20206;-88
2022/09/26 00:15:51;;;;;;;3.25;2.83;;;11.70;99.90;;;;;;5030581;28;20218;-86
2022/09/26 00:18:34;;;;;;;5.95;2.95;;;11.80;99.90;;;;;;5038374;28;20209;-86
2022/09/26 00:21:11;;;;;;;3.03;2.83;;;11.80;99.90;;;;;;5039586;28;20282;-87
2022/09/26 00:23:51;;;;;;;3.70;3.00;;;11.90;99.90;;;;;;5035691;28;20209;-87
2022/09/26 00:26:44;;;;;;;3.67;2.97;;;11.90;99.90;;;;;;5026976;28;20226;-86
2022/09/26 00:29:21;;;;;;;3.47;3.17;;;11.80;99.90;;;;;;5038830;28;20204;-86
2022/09/26 00:31:56;;;;;;;4.05;3.10;;;11.70;99.90;;;;;;5039643;28;20281;-86
2022/09/26 00:34:25;;;;;;;3.60;3.30;;;11.70;99.90;;;;;;5040077;28;20305;-86
2022/09/26 00:37:08;;;;;;;3.25;2.90;;;11.80;99.90;;;;;;5035155;28;20198;-86
2022/09/26 00:39:35;;;;;;;3.40;3.10;;;11.80;99.90;;;;;;5040233;28;20198;-86
2022/09/26 00:42:10;;;;;;;4.30;2.90;;;11.80;99.90;;;;;;5039778;28;20202;-86
2022/09/26 00:44:56;;;;;;;3.95;3.53;;;11.80;99.90;;;;;;5040817;28;20200;-86
2022/09/26 00:47:37;;;;;;;3.45;3.10;;;11.80;99.90;;;;;;5012644;28;20206;-86
2022/09/26 00:50:18;;;;;;;3.22;2.92;;;11.80;99.90;;;;;;5037324;28;20190;-86
2022/09/26 00:53:23;;;;;;;3.97;3.30;;;11.80;99.90;;;;;;5035673;28;20202;-87
2022/09/26 00:56:10;;;;;;;3.60;3.30;;;11.80;99.90;;;;;;5031203;28;20290;-86
2022/09/26 00:58:59;;;;;;;3.33;3.05;;;11.80;99.90;;;;;;5035859;28;20203;-86
2022/09/26 01:04:49;;;;;;;4.63;3.30;;;11.90;99.90;;;;;;5025930;28;20361;-88
2022/09/26 01:07:24;;;;;;;4.63;3.10;;;11.90;99.90;;;;;;5041472;28;20302;-86
2022/09/26 01:09:57;;;;;;;3.97;3.35;;;11.90;99.90;;;;;;5037371;28;20190;-86
2022/09/26 01:12:27;;;;;;;3.22;2.92;;;11.90;99.90;;;;;;5038672;28;20210;-86
2022/09/26 01:15:20;;;;;;;3.67;3.38;;;11.80;99.90;;;;;;5044138;28;20218;-86
2022/09/26 01:21:27;;;;;;;5.13;3.50;;;11.80;99.90;;;;;;5042609;28;20313;-86
2022/09/26 01:24:25;;;;;;;4.10;3.55;;;11.80;99.90;;;;;;5043582;28;20190;-86
2022/09/26 01:27:26;;;;;;;3.85;3.50;;;11.70;99.90;;;;;;4986029;28;20235;-86
2022/09/26 01:30:14;;;;;;;4.03;3.60;;;11.70;99.90;;;;;;4923871;29;20202;-86
2022/09/26 01:33:24;;;;;;;6.75;3.42;;;11.70;99.90;;;;;;4921673;29;20202;-86
2022/09/26 01:36:19;;;;;;;5.97;3.30;;;11.70;99.90;;;;;;4876941;29;20643;-86
2022/09/26 01:39:19;;;;;;;4.32;3.35;;;11.80;99.90;;;;;;4886437;29;20212;-86
2022/09/26 01:41:58;;;;;;;3.53;3.20;;;11.80;99.90;;;;;;4887276;29;20200;-86
2022/09/26 01:44:40;;;;;;;3.60;3.15;;;11.80;99.90;;;;;;4886220;29;20270;-86
2022/09/26 01:47:31;;;;;;;3.70;3.25;;;11.80;99.90;;;;;;4886768;29;20212;-86
2022/09/26 01:50:05;;;;;;;3.47;2.88;;;11.90;99.90;;;;;;4888566;29;20671;-86
2022/09/26 01:52:50;;;;;;;3.20;2.90;;;11.90;99.90;;;;;;4886410;29;20208;-86
2022/09/26 01:55:26;;;;;;;3.20;2.92;;;11.90;99.90;;;;;;4888828;29;20223;-87
2022/09/26 01:58:23;;;;;;;3.35;3.05;;;11.80;99.90;;;;;;4885974;29;20591;-86
2022/09/26 02:01:01;;;;;;;2.95;2.75;;;11.80;99.90;;;;;;4885724;29;20212;-87
2022/09/26 02:03:38;;;;;;;3.17;2.90;;;11.80;99.90;;;;;;4904146;29;20213;-86
2022/09/26 02:06:24;;;;;;;2.95;2.70;;;11.70;99.90;;;;;;4943834;28;20233;-86
2022/09/26 02:08:56;;;;;;;4.55;3.00;;;11.70;99.90;;;;;;4980560;28;20208;-86
2022/09/26 02:11:48;;;;;;;4.18;2.75;;;11.70;99.90;;;;;;4982665;28;20240;-87
2022/09/26 02:14:31;;;;;;;2.97;2.67;;;11.70;99.90;;;;;;5037310;28;20213;-86
2022/09/26 02:17:01;;;;;;;3.05;2.75;;;11.70;99.90;;;;;;5031462;28;20209;-87
2022/09/26 02:19:55;;;;;;;2.92;2.72;;;11.60;99.90;;;;;;5032050;28;20198;-86
2022/09/26 02:22:44;;;;;;;5.10;3.00;;;11.70;99.90;;;;;;5040570;28;20270;-86
2022/09/26 02:25:20;;;;;;;3.35;3.05;;;11.70;99.90;;;;;;5043169;28;20217;-86
2022/09/26 02:28:03;;;;;;;3.88;3.47;;;11.70;99.90;;;;;;5038361;28;20197;-86
2022/09/26 02:30:33;;;;;;;5.60;3.47;;;11.80;99.90;;;;;;5053629;28;20206;-87
2022/09/26 02:36:24;;;;;;;3.90;3.50;;;11.70;99.90;;;;;;5045587;28;20220;-86
2022/09/26 02:38:57;;;;;;;4.35;3.80;;;11.70;99.90;;;;;;5042472;28;20199;-86
2022/09/26 02:41:47;;;;;;;4.60;4.10;;;11.80;99.90;;;;;;5042200;28;20201;-86
2022/09/26 02:44:33;;;;;;;3.80;3.40;;;11.90;99.90;;;;;;5033792;28;20202;-86
2022/09/26 02:47:42;;;;;;;4.47;4.07;;;11.90;99.90;;;;;;5032177;28;20669;-87
2022/09/26 02:50:40;;;;;;;4.38;3.97;;;11.80;99.90;;;;;;5036915;28;20209;-86
2022/09/26 02:56:44;;;;;;;4.72;4.22;;;11.70;99.90;;;;;;5036406;28;20261;-86
2022/09/26 03:02:39;;;;;;;5.40;4.20;;;11.70;99.90;;;;;;5041471;28;20193;-86
2022/09/26 03:05:11;;;;;;;5.85;4.22;;;11.60;99.90;;;;;;5040297;28;20214;-86
2022/09/26 03:11:07;;;;;;;8.55;5.20;;;11.60;99.90;;;;;;5039381;28;20201;-86
2022/09/26 03:13:53;;;;;;;5.28;4.75;;;11.50;99.90;;;;;;5033576;28;20274;-86
2022/09/26 03:16:36;;;;;;;6.03;5.25;;;11.50;99.90;;;;;;5041435;28;20219;-86
2022/09/26 03:19:09;;;;;;;5.80;5.22;;;11.50;99.90;;;;;;5032810;28;20207;-86
2022/09/26 03:21:45;;;;;;;6.05;5.10;;;11.50;99.90;;;;;;5039610;28;20202;-86
2022/09/26 03:24:16;;;;;;;6.10;5.28;;;11.50;99.90;;;;;;5039696;28;20209;-86
2022/09/26 03:26:46;;;;;;;5.55;4.93;;;11.50;99.90;;;;;;5039272;28;20278;-86
2022/09/26 03:29:18;;;;;;;7.85;5.47;;;11.40;99.90;;;;;;5039140;28;20224;-86
2022/09/26 03:31:45;;;;;;;6.80;5.28;;;11.40;99.90;;;;;;5029769;28;20253;-87
2022/09/26 03:34:32;;;;;;;7.65;5.93;;;11.40;99.90;;;;;;5032491;28;20202;-86
2022/09/26 03:37:33;;;;;;;7.10;5.57;;;11.50;99.90;;;;;;5040075;28;20577;-86
2022/09/26 03:40:01;;;;;;;5.70;5.10;;;11.50;99.90;;;;;;5039343;28;20612;-86
2022/09/26 03:42:29;;;;;;;6.43;5.72;;;11.40;99.90;;;;;;5040858;28;20195;-86
2022/09/26 03:45:17;;;;;;;6.47;5.78;;;11.50;99.90;;;;;;5039987;28;20198;-86
2022/09/26 03:47:45;;;;;;;6.80;6.10;;;11.40;99.90;;;;;;5038556;28;20237;-86
2022/09/26 03:50:21;;;;;;;7.95;6.10;;;11.40;99.90;;;;;;5036893;28;20198;-86
2022/09/26 03:52:51;;;;;;;6.72;5.93;;;11.50;99.90;;;;;;5040905;28;20198;-86
2022/09/26 03:55:38;;;;;;;6.30;5.68;;;11.50;99.90;;;;;;5039530;28;20216;-86
2022/09/26 03:58:05;;;;;;;7.32;5.60;;;11.50;99.90;;;;;;5040102;28;20204;-87
2022/09/26 04:00:35;;;;;;;6.40;5.80;;;11.50;99.90;;;;;;5039890;28;20187;-87
2022/09/26 04:03:03;;;;;;;6.20;5.60;;;11.50;99.90;;;;;;5040351;28;20210;-86
2022/09/26 04:06:20;;;;;;;6.70;6.00;;;11.60;99.90;;;;;;5039723;28;20352;-86
2022/09/26 04:09:16;;;;;;;6.57;5.80;;;11.60;99.90;;;;;;5038329;28;20259;-86
2022/09/26 04:12:08;;;;;;;6.38;5.78;;;11.70;99.90;;;;;;5034096;28;20426;-87
2022/09/26 04:14:39;;;;;;;6.93;5.65;;;11.60;99.90;;;;;;5018995;28;20260;-86
2022/09/26 04:17:28;;;;;;;6.40;5.78;;;11.70;99.90;;;;;;5038514;28;20226;-86
2022/09/26 04:19:55;;;;;;;6.03;5.38;;;11.60;99.90;;;;;;5038580;28;20700;-86
2022/09/26 04:22:33;;;;;;;5.85;5.28;;;11.70;99.90;;;;;;5017946;28;20217;-87
2022/09/26 04:25:00;;;;;;;5.38;4.85;;;11.70;99.90;;;;;;5030216;28;20206;-87
2022/09/26 04:27:39;;;;;;;5.15;4.65;;;11.70;99.90;;;;;;5037899;28;20721;-86
2022/09/26 04:30:07;;;;;;;6.18;4.97;;;11.60;99.90;;;;;;5033938;28;20209;-86
2022/09/26 04:36:01;;;;;;;6.18;4.78;;;11.60;99.90;;;;;;5032550;28;20221;-86
2022/09/26 04:38:33;;;;;;;6.00;4.55;;;11.50;99.90;;;;;;5028423;28;20224;-86
2022/09/26 04:41:04;;;;;;;5.65;5.05;;;11.60;99.90;;;;;;5034082;28;20194;-86
2022/09/26 04:43:33;;;;;;;5.32;4.75;;;11.60;99.90;;;;;;5024802;28;20199;-86
2022/09/26 04:46:06;;;;;;;5.55;4.90;;;11.60;99.90;;;;;;5032058;28;20206;-86
2022/09/26 04:49:02;;;;;;;5.25;4.57;;;11.60;99.90;;;;;;5029451;28;20194;-86
2022/09/26 04:51:35;;;;;;;6.07;4.63;;;11.60;99.90;;;;;;5035928;28;20203;-86
2022/09/26 04:54:09;;;;;;;5.28;4.50;;;11.60;99.90;;;;;;5015201;28;20610;-87
2022/09/26 04:56:39;;;;;;;5.10;4.60;;;11.60;99.90;;;;;;5031992;28;20218;-85
2022/09/26 04:59:15;;;;;;;5.10;4.53;;;11.60;99.90;;;;;;5034604;28;20201;-86
2022/09/26 05:01:43;;;;;;;7.15;4.88;;;11.50;99.90;;;;;;5015628;28;20191;-86
2022/09/26 05:04:27;;;;;;;6.80;4.85;;;11.40;99.90;;;;;;5026771;28;20260;-86
2022/09/26 05:07:36;;;;;;;5.35;4.85;;;11.40;99.90;;;;;;5007245;28;20206;-86
2022/09/26 05:10:04;;;;;;;6.45;4.75;;;11.40;99.90;;;;;;5029012;28;20202;-85
2022/09/26 05:12:32;;;;;;;5.88;4.30;;;11.40;99.90;;;;;;5012813;28;20195;-85
2022/09/26 05:15:00;;;;;;;5.68;4.40;;;11.40;99.90;;;;;;5034033;28;20245;-86
2022/09/26 05:17:39;;;;;;;5.75;4.78;;;11.40;99.90;;;;;;5029131;28;20241;-86
2022/09/26 05:20:08;;;;;;;5.50;4.47;;;11.40;99.90;;;;;;5033987;28;20198;-86
2022/09/26 05:22:36;;;;;;;5.40;4.38;;;11.40;99.90;;;;;;5035003;28;20202;-86
2022/09/26 05:27:52;;;;;;;5.43;4.80;;;11.40;99.90;;;;;;4956757;28;20221;-85
2022/09/26 05:30:31;;;;;;;5.20;4.57;;;11.40;99.90;;;;;;4953858;28;20272;-85
2022/09/26 05:33:15;;;;;;;5.47;4.82;;;11.40;99.90;;;;;;4957387;29;20709;-86
2022/09/26 05:35:48;;;;;;;5.22;4.72;;;11.40;99.90;;;;;;4954385;29;20329;-86
2022/09/26 05:38:33;;;;;;;5.30;4.80;;;11.50;99.90;;;;;;4952731;28;20208;-86
2022/09/26 05:41:21;;;;;;;5.43;4.93;;;11.50;99.90;;;;;;4958152;28;20205;-86
2022/09/26 05:43:51;;;;;;;6.85;5.40;;;11.40;99.90;;;;;;4952551;28;20194;-86
2022/09/26 05:46:27;;;;;;;6.32;5.65;;;11.40;99.90;;;;;;4952586;28;20214;-86
2022/09/26 05:49:14;;;;;;;6.20;5.15;;;11.40;99.90;;;;;;4939786;29;20256;-86
2022/09/26 05:51:52;;;;;;;5.53;5.03;;;11.40;99.90;;;;;;4957646;29;20603;-86
2022/09/26 05:54:27;;;;;;;6.22;4.70;;;11.40;99.90;;;;;;4951556;29;20205;-86
2022/09/26 05:56:55;;;;;;;6.10;4.75;;;11.40;99.90;;;;;;4958528;29;20233;-86
2022/09/26 05:59:33;;;;;;;5.70;5.10;;;11.50;99.90;;;;;;4949946;28;20201;-86
2022/09/26 06:02:20;;;;;;;5.97;5.13;;;11.50;99.90;;;;;;4943475;29;20234;-86
2022/09/26 06:04:57;;;;;;;7.35;5.68;;;11.40;99.90;;;;;;4990931;28;20694;-85
2022/09/26 06:07:39;;;;;;;6.35;5.32;;;11.50;99.90;;;;;;5033299;28;20210;-86
2022/09/26 06:10:26;;;;;;;7.10;5.50;;;11.50;99.90;;;;;;5031550;28;20199;-86
2022/09/26 06:13:14;;;;;;;5.22;4.70;;;11.50;99.90;;;;;;5027980;28;20210;-86
2022/09/26 06:15:42;;;;;;;6.07;5.22;;;11.50;99.90;;;;;;5031158;28;20225;-86
2022/09/26 06:18:15;;;;;;;6.60;5.70;;;11.50;99.90;;;;;;5041189;28;20195;-86
2022/09/26 06:24:04;;;;;;;7.00;5.95;;;11.50;99.90;;;;;;5032664;28;20552;-86
2022/09/26 06:26:31;;;;;;;7.03;6.28;;;11.50;99.90;;;;;;5036354;28;20203;-85
2022/09/26 06:29:34;;;;;;;8.52;7.32;;;11.60;99.90;;;;;;5044873;28;20201;-87
2022/09/26 06:32:01;;;;;;;7.43;6.72;;;11.80;99.90;;;;;;5025470;28;20203;-87
2022/09/26 06:37:51;;;;;;;8.00;7.20;;;12.30;99.90;;;;;;5040172;28;20233;-87
2022/09/26 06:40:18;;;;;;;8.02;7.20;;;12.20;99.90;;;;;;5034644;28;20195;-86
2022/09/26 06:42:45;;;;;;;8.73;7.82;;;12.20;99.90;;;;;;5041463;28;20202;-87
2022/09/26 06:45:50;;;;;;;8.68;7.78;;;12.20;99.90;;;;;;5042604;28;20205;-86
2022/09/26 06:48:24;;;;;;;9.55;8.35;;;12.20;99.90;;;;;;5037696;28;20251;-87
2022/09/26 06:51:27;;;;;;;9.82;8.82;;;12.20;99.90;;;;;;5050912;28;20199;-88
2022/09/26 07:01:26;;;;;;;11.13;8.43;;;12.30;99.90;;;;;;5038275;28;20189;-87
2022/09/26 07:04:05;;;;;;;10.23;9.18;;;12.40;99.90;;;;;;5039326;28;20237;-88
2022/09/26 07:06:33;;;;;;;10.40;8.95;;;12.30;99.90;;;;;;5007859;28;20238;-86
2022/09/26 07:09:03;;;;;;;11.50;8.60;;;12.20;99.90;;;;;;5038144;28;20190;-86
2022/09/26 07:11:30;;;;;;;10.98;9.10;;;12.10;99.90;;;;;;5041319;28;20224;-87
2022/09/26 07:13:59;;;;;;;11.20;9.35;;;12.10;99.90;;;;;;5041796;28;20213;-87
2022/09/26 07:16:27;;;;;;;9.95;8.65;;;12.10;99.90;;;;;;5040286;28;20218;-88
2022/09/26 07:18:57;;;;;;;10.85;8.95;;;12.10;99.90;;;;;;5025137;28;20211;-87
2022/09/26 07:21:26;;;;;;;10.38;9.25;;;12.20;99.90;;;;;;5034321;28;20206;-89
2022/09/26 07:23:57;;;;;;;10.95;8.73;;;12.40;99.90;;;;;;5036008;28;20213;-88
2022/09/26 07:26:27;;;;;;;9.85;8.70;;;12.50;99.90;;;;;;5031413;28;20246;-86
2022/09/26 07:28:57;;;;;;;10.10;8.32;;;12.50;99.50;;;;;;5039929;28;20281;-86
2022/09/26 07:31:24;;;;;;;9.38;8.38;;;12.40;99.70;;;;;;5040610;28;20202;-86
2022/09/26 07:33:51;;;;;;;11.82;8.88;;;12.30;99.90;;;;;;5040744;28;20209;-85
2022/09/26 07:36:19;;;;;;;11.55;8.90;;;12.30;99.90;;;;;;5039659;28;20230;-86
2022/09/26 07:38:49;;;;;;;9.80;8.63;;;12.30;99.90;;;;;;5021546;28;20199;-86
2022/09/26 07:41:18;;;;;;;9.32;7.65;;;12.20;99.90;;;;;;5041961;28;20205;-86
2022/09/26 07:43:45;;;;;;;9.88;7.80;;;12.40;99.90;;;;;;5031313;28;20206;-87
2022/09/26 07:52:16;;;;;;;7.47;6.70;;;12.50;99.90;;;;;;4956110;28;20752;-89
2022/09/26 07:54:53;;;;;;;7.40;6.60;;;12.70;99.90;;;;;;4963681;28;20236;-87
2022/09/26 07:57:20;;;;;;;8.18;6.60;;;12.90;99.90;;;;;;4955362;28;20716;-87
2022/09/26 07:59:57;;;;;;;7.35;6.65;;;13.00;99.90;;;;;;4956664;29;20245;-88
2022/09/26 08:02:41;;;;;;;11.27;7.00;;;13.10;99.60;;;;;;4955530;29;20200;-88
2022/09/26 08:05:38;;;;;;;8.50;6.15;;;13.20;99.50;;;;;;4955464;29;20253;-88
2022/09/26 08:08:09;;;;;;;7.25;6.22;;;13.40;98.80;;;;;;4949764;29;20201;-88
2022/09/26 08:10:37;;;;;;;7.05;6.35;;;13.40;98.90;;;;;;4952335;28;20634;-88
2022/09/26 08:13:21;;;;;;;6.75;5.97;;;13.40;98.40;;;;;;4953668;28;20728;-88
2022/09/26 08:16:04;;;;;;;6.18;5.57;;;13.50;98.00;;;;;;4951022;29;20288;-87
2022/09/26 08:18:57;;;;;;;6.43;5.82;;;13.60;97.80;;;;;;4945601;29;20198;-87
2022/09/26 08:21:24;;;;;;;6.22;5.63;;;13.50;97.50;;;;;;4953929;28;20193;-88
2022/09/26 08:24:21;;;;;;;6.05;5.35;;;13.40;98.10;;;;;;4960920;28;20697;-86
2022/09/26 08:26:49;;;;;;;5.65;5.10;;;13.60;96.60;;;;;;4957984;28;20213;-87
2022/09/26 08:29:27;;;;;;;6.15;5.53;;;13.60;97.00;;;;;;4986206;28;20197;-87
2022/09/26 08:31:54;;;;;;;5.72;5.13;;;13.60;97.00;;;;;;5025874;28;20669;-87
2022/09/26 08:34:21;;;;;;;6.18;5.57;;;13.40;97.60;;;;;;5024846;28;20294;-86
2022/09/26 08:37:14;;;;;;;5.82;4.80;;;13.40;97.70;;;;;;5037180;28;20297;-87
2022/09/26 08:39:41;;;;;;;5.65;5.15;;;13.40;98.00;;;;;;5029949;28;20210;-87
2022/09/26 08:42:35;;;;;;;5.95;5.18;;;13.60;97.30;;;;;;5028699;28;20560;-87
2022/09/26 08:48:34;;;;;;;4.75;4.28;;;13.90;97.00;;;;;;5020545;28;20210;-88
2022/09/26 08:51:15;;;;;;;3.92;3.47;;;14.50;96.50;;;;;;5023051;28;20200;-88
2022/09/26 08:53:52;;;;;;;4.57;3.53;;;15.10;94.60;;;;;;5023668;28;20210;-88
2022/09/26 08:56:33;;;;;;;3.83;3.42;;;15.40;92.70;;;;;;5022435;28;20195;-89
2022/09/26 08:59:11;;;;;;;3.40;3.10;;;15.40;91.60;;;;;;5032793;28;20206;-88
2022/09/26 09:01:43;;;;;;;3.85;3.53;;;15.40;91.60;;;;;;5028122;28;20965;-88
2022/09/26 09:04:37;;;;;;;4.05;3.13;;;15.70;91.60;;;;;;5028941;28;20305;-88
2022/09/26 09:07:19;;;;;;;3.25;2.95;;;15.80;90.30;;;;;;5022394;28;20234;-88
2022/09/26 09:09:55;;;;;;;2.80;2.60;;;16.20;90.10;;;;;;5024575;28;20656;-89
2022/09/26 09:12:35;;;;;;;3.30;3.00;;;16.30;90.60;;;;;;5032599;28;20205;-89
2022/09/26 09:15:33;;;;;;;3.28;2.97;;;16.40;90.30;;;;;;5042226;28;20206;-86
2022/09/26 09:18:15;;;;;;;4.95;3.30;;;16.40;88.50;;;;;;5036429;28;20237;-86
2022/09/26 09:21:19;;;;;;;4.45;3.50;;;16.30;85.50;;;;;;5038422;28;20610;-86
2022/09/26 09:24:16;;;;;;;4.20;3.80;;;15.80;87.00;;;;;;5028290;28;20195;-85
2022/09/26 09:27:08;;;;;;;3.60;3.30;;;15.30;89.70;;;;;;5033581;28;20213;-85
2022/09/26 09:29:57;;;;;;;3.72;3.22;;;15.10;90.80;;;;;;5037693;28;20542;-87
2022/09/26 09:32:32;;;;;;;3.38;2.72;;;15.00;90.20;;;;;;5036785;28;20571;-87
2022/09/26 09:35:14;;;;;;;4.43;3.00;;;14.80;90.60;;;;;;5033505;28;20204;-87
2022/09/26 09:37:49;;;;;;;3.75;2.85;;;14.50;91.10;;;;;;5034687;28;20227;-88
2022/09/26 09:40:25;;;;;;;3.65;3.00;;;14.40;91.80;;;;;;5037475;28;20209;-88
2022/09/26 09:43:02;;;;;;;3.30;3.00;;;14.60;93.10;;;;;;5026184;28;20290;-88
2022/09/26 09:45:48;;;;;;;3.65;3.10;;;14.70;92.80;;;;;;5033647;28;20657;-88
2022/09/26 09:48:29;;;;;;;3.83;3.00;;;14.90;91.40;;;;;;5036441;28;20217;-88
2022/09/26 09:51:41;;;;;;;2.65;2.45;;;15.00;90.50;;;;;;5024995;28;20211;-87
2022/09/26 09:54:25;;;;;;;2.60;2.40;;;15.20;90.90;;;;;;5011114;28;20681;-88
2022/09/26 09:57:07;;;;;;;3.28;2.97;;;15.60;88.20;;;;;;5022731;28;20696;-85
2022/09/26 10:00:03;;;;;;;2.95;2.47;;;16.50;87.70;;;;;;5034342;28;20196;-86
2022/09/26 10:02:38;;;;;;;2.55;2.35;;;17.70;79.20;;;;;;5039247;28;20642;-86
2022/09/26 10:05:35;;;;;;;3.28;2.50;;;18.60;63.00;;;;;;5027910;28;20214;-84
2022/09/26 10:08:08;;;;;;;2.80;2.35;;;18.70;54.70;;;;;;5031181;28;20278;-84
2022/09/26 10:10:43;;;;;;;2.75;2.50;;;18.40;48.10;;;;;;5037726;28;20195;-83
2022/09/26 10:13:33;;;;;;;2.38;2.20;;;17.60;53.70;;;;;;5019521;28;20290;-82
2022/09/26 10:16:06;;;;;;;2.42;2.22;;;16.80;69.30;;;;;;5037834;28;20213;-86
2022/09/26 10:18:34;;;;;;;2.30;2.10;;;16.90;64.40;;;;;;5028917;28;20697;-86
2022/09/26 10:21:09;;;;;;;2.50;2.28;;;17.20;73.50;;;;;;5031916;28;20248;-86
2022/09/26 10:23:47;;;;;;;2.35;2.13;;;18.40;56.40;;;;;;5025779;28;20202;-82
2022/09/26 10:26:22;;;;;;;2.53;2.33;;;18.90;51.00;;;;;;5029112;28;20198;-83
2022/09/26 10:28:54;;;;;;;2.65;2.33;;;18.90;42.80;;;;;;5036309;28;20212;-84
2022/09/26 10:31:28;;;;;;;3.85;2.28;;;18.30;46.60;;;;;;5039785;28;20190;-83
2022/09/26 10:33:58;;;;;;;3.10;2.83;;;17.80;46.70;;;;;;5036808;28;20210;-86
2022/09/26 10:37:20;;;;;;;3.58;2.47;;;17.10;53.30;;;;;;5038934;28;20198;-85
2022/09/26 10:43:23;;;;;;;3.10;2.80;;;15.90;69.60;;;;;;5032942;28;20193;-86
2022/09/26 10:45:54;;;;;;;6.15;3.10;;;15.10;80.80;;;;;;5034219;28;20209;-87
2022/09/26 10:48:47;;;;;;;4.40;3.00;;;14.40;91.30;;;;;;5036953;28;20218;-88
2022/09/26 10:51:28;;;;;;;4.43;3.60;;;13.70;93.10;;;;;;5019514;28;20210;-90
2022/09/26 10:54:10;;;;;;;4.68;3.08;;;13.40;95.40;;;;;;5003589;28;20217;-86
2022/09/26 10:56:42;;;;;;;3.33;3.00;;;13.30;96.50;;;;;;5039780;28;20201;-89
2022/09/26 10:59:17;;;;;;;3.47;2.83;;;13.30;96.10;;;;;;5033908;28;20202;-89
2022/09/26 11:01:57;;;;;;;3.20;2.90;;;13.50;95.30;;;;;;5039590;28;20249;-90
2022/09/26 11:10:33;;;;;;;2.92;2.63;;;14.10;95.90;;;;;;4980255;28;20244;-88
2022/09/26 11:13:02;;;;;;;3.05;2.58;;;14.30;95.30;;;;;;4979714;28;20216;-89
2022/09/26 11:15:41;;;;;;;4.38;3.00;;;14.40;95.50;;;;;;4962732;28;20225;-88
2022/09/26 11:18:20;;;;;;;3.30;2.75;;;14.40;94.50;;;;;;4965960;28;20637;-88
2022/09/26 11:21:17;;;;;;;3.30;2.67;;;14.50;94.00;;;;;;4962244;28;20272;-86
2022/09/26 11:24:24;;;;;;;5.38;2.55;;;14.70;93.30;;;;;;4961540;28;20698;-87
2022/09/26 11:27:12;;;;;;;3.38;2.60;;;14.80;93.50;;;;;;4969877;28;20204;-87
2022/09/26 11:29:51;;;;;;;3.00;2.25;;;15.10;92.40;;;;;;4967382;28;20224;-87
2022/09/26 11:32:22;;;;;;;3.53;2.38;;;15.10;92.40;;;;;;4966848;28;20728;-87
2022/09/26 11:34:52;;;;;;;4.43;2.55;;;15.10;91.50;;;;;;4969509;28;20787;-87
2022/09/26 11:37:54;;;;;;;2.20;2.00;;;15.20;91.00;;;;;;4962688;28;20232;-87
2022/09/26 11:40:43;;;;;;;2.38;2.17;;;15.20;91.50;;;;;;4967828;28;20207;-85
2022/09/26 11:43:34;;;;;;;2.55;2.33;;;15.20;91.50;;;;;;4956767;28;20219;-87
2022/09/26 11:46:15;;;;;;;2.50;2.30;;;15.50;91.90;;;;;;5021067;28;20225;-87
2022/09/26 11:49:31;;;;;;;3.05;2.15;;;15.80;84.00;;;;;;5021794;28;20207;-86
2022/09/26 11:52:14;;;;;;;3.60;1.95;;;16.00;87.80;;;;;;5017891;28;20199;-88
2022/09/26 11:55:10;;;;;;;1.90;1.80;;;16.30;85.10;;;;;;5018527;28;20203;-86
2022/09/26 11:57:44;;;;;;;2.17;1.98;;;16.70;86.70;;;;;;5019405;28;20219;-88
2022/09/26 12:00:26;;;;;;;2.10;1.92;;;16.70;78.50;;;;;;5022903;28;20190;-88
2022/09/26 12:03:21;;;;;;;2.08;1.90;;;16.50;78.30;;;;;;5022577;28;20195;-87
2022/09/26 12:05:59;;;;;;;4.03;2.00;;;16.50;77.20;;;;;;5023281;28;20218;-87
2022/09/26 12:09:02;;;;;;;2.20;1.80;;;16.60;73.80;;;;;;5025362;28;20242;-87
2022/09/26 12:11:41;;;;;;;1.75;1.65;;;16.80;78.60;;;;;;5026822;28;20203;-89
2022/09/26 12:14:22;;;;;;;1.80;1.70;;;16.60;78.50;;;;;;5026596;28;20199;-87
2022/09/26 12:17:08;;;;;;;2.10;1.90;;;16.50;76.00;;;;;;5028334;28;20198;-89
2022/09/26 12:19:47;;;;;;;2.13;1.90;;;16.90;62.70;;;;;;5030157;28;20201;-88
2022/09/26 12:22:29;;;;;;;2.00;1.88;;;17.10;66.20;;;;;;5024440;28;20676;-87
2022/09/26 12:25:36;;;;;;;1.92;1.80;;;16.90;70.00;;;;;;5025044;28;20199;-86
2022/09/26 12:28:44;;;;;;;1.98;1.77;;;16.90;64.60;;;;;;4947325;28;20679;-85
2022/09/26 12:31:40;;;;;;;2.10;1.90;;;17.10;62.00;;;;;;4942663;29;20206;-85
2022/09/26 12:34:39;;;;;;;1.77;1.67;;;17.30;64.70;;;;;;4947168;29;20205;-86
2022/09/26 12:37:44;;;;;;;3.05;1.90;;;17.30;59.70;;;;;;4941877;29;20198;-87
2022/09/26 12:40:31;;;;;;;1.95;1.85;;;17.20;58.00;;;;;;4941411;29;20209;-87
2022/09/26 12:43:28;;;;;;;1.90;1.80;;;17.20;58.50;;;;;;4939404;29;20218;-87
2022/09/26 12:46:36;;;;;;;2.30;2.00;;;17.10;53.30;;;;;;4946966;29;20296;-87
2022/09/26 12:49:37;;;;;;;2.20;2.00;;;16.90;59.70;;;;;;4940916;29;20685;-87
2022/09/26 12:52:22;;;;;;;2.30;2.05;;;16.90;56.60;;;;;;4943908;29;20212;-87
2022/09/26 12:55:16;;;;;;;2.30;2.10;;;16.60;61.80;;;;;;4940701;29;20221;-87
2022/09/26 12:57:59;;;;;;;2.17;1.98;;;16.80;60.70;;;;;;4955479;28;20339;-87
2022/09/26 13:00:40;;;;;;;1.88;1.77;;;17.00;56.20;;;;;;4945937;29;20225;-88
2022/09/26 13:03:46;;;;;;;2.17;1.98;;;17.00;54.40;;;;;;4948373;29;20212;-88
2022/09/26 13:06:37;;;;;;;2.40;2.00;;;17.00;53.20;;;;;;5022903;28;20222;-88
2022/09/26 13:09:26;;;;;;;3.00;2.40;;;16.60;52.80;;;;;;5032962;28;20241;-88
2022/09/26 13:12:22;;;;;;;2.30;2.10;;;16.50;56.80;;;;;;5025689;28;20696;-88
2022/09/26 13:15:04;;;;;;;2.42;2.17;;;16.50;50.10;;;;;;5023015;28;20207;-89
2022/09/26 13:17:47;;;;;;;2.30;2.10;;;16.60;52.80;;;;;;5023623;28;20658;-91
2022/09/26 13:20:42;;;;;;;2.10;1.90;;;16.50;52.70;;;;;;5029164;28;20282;-89
2022/09/26 13:23:26;;;;;;;2.30;2.10;;;16.40;51.70;;;;;;5032319;28;20203;-87
2022/09/26 13:26:02;;;;;;;2.67;2.30;;;16.40;52.60;;;;;;5034291;28;20210;-88
2022/09/26 13:28:54;;;;;;;3.20;2.60;;;16.50;57.50;;;;;;5032020;28;20209;-87
2022/09/26 13:31:57;;;;;;;4.28;2.42;;;16.80;55.40;;;;;;5032647;28;20194;-85
2022/09/26 13:34:38;;;;;;;3.00;2.70;;;16.60;54.00;;;;;;5031221;28;20858;-85
2022/09/26 13:37:14;;;;;;;6.35;2.80;;;16.20;63.50;;;;;;5026168;28;20199;-85
2022/09/26 13:39:52;;;;;;;3.67;2.38;;;16.00;62.90;;;;;;5038071;28;20222;-85
2022/09/26 13:42:35;;;;;;;3.85;2.22;;;16.00;63.00;;;;;;5033580;28;20203;-85
2022/09/26 13:45:16;;;;;;;3.75;2.28;;;16.20;61.00;;;;;;5027483;28;20206;-85
2022/09/26 13:47:51;;;;;;;2.53;2.33;;;16.50;57.90;;;;;;5027780;28;20218;-86
2022/09/26 13:50:37;;;;;;;3.25;2.50;;;16.50;55.60;;;;;;5030399;28;20190;-87
2022/09/26 13:53:19;;;;;;;2.95;2.20;;;16.60;55.30;;;;;;5028361;28;20195;-89
2022/09/26 13:56:28;;;;;;;2.58;2.25;;;16.70;54.90;;;;;;5028960;28;20261;-88
2022/09/26 13:59:24;;;;;;;2.60;2.00;;;16.60;42.50;;;;;;5031891;28;20221;-87
2022/09/26 14:02:25;;;;;;;4.22;1.92;;;16.50;46.80;;;;;;5027513;28;20203;-87
2022/09/26 14:05:28;;;;;;;2.17;2.00;;;16.40;47.10;;;;;;5027490;28;20218;-87
2022/09/26 14:11:13;;;;;;;2.33;1.65;;;16.40;48.60;;;;;;4959158;28;20257;-86
2022/09/26 14:13:46;;;;;;;1.95;1.75;;;16.40;39.90;;;;;;4976279;28;20208;-86
2022/09/26 14:16:40;;;;;;;2.10;1.90;;;16.40;38.20;;;;;;4980053;28;20256;-86
2022/09/26 14:19:09;;;;;;;1.90;1.77;;;16.30;42.50;;;;;;4964584;28;20231;-87
2022/09/26 14:21:40;;;;;;;2.67;1.85;;;16.20;42.30;;;;;;4954136;28;20202;-86
2022/09/26 14:24:40;;;;;;;1.90;1.80;;;16.10;41.40;;;;;;4971727;28;20890;-86
2022/09/26 14:27:28;;;;;;;2.10;1.90;;;15.90;39.90;;;;;;4965029;28;20563;-85
2022/09/26 14:30:01;;;;;;;3.15;2.10;;;15.80;42.50;;;;;;4973940;28;20205;-86
2022/09/26 14:32:47;;;;;;;2.05;1.73;;;15.80;42.60;;;;;;4954504;28;20325;-87
2022/09/26 14:35:27;;;;;;;1.88;1.67;;;15.80;40.00;;;;;;4969525;28;20248;-86
2022/09/26 14:38:02;;;;;;;2.17;1.98;;;15.80;41.80;;;;;;4951387;28;20204;-85
2022/09/26 14:40:36;;;;;;;2.05;1.73;;;15.70;42.30;;;;;;4966493;28;20200;-87
2022/09/26 14:43:12;;;;;;;3.33;1.95;;;15.70;40.90;;;;;;5033671;28;20221;-87
2022/09/26 14:45:51;;;;;;;1.95;1.65;;;15.60;37.70;;;;;;5015880;28;20608;-84
2022/09/26 14:48:37;;;;;;;1.70;1.60;;;15.60;39.40;;;;;;5035005;28;20202;-87
2022/09/26 14:51:07;;;;;;;2.70;1.60;;;15.50;38.20;;;;;;5030712;28;20197;-87
2022/09/26 14:53:42;;;;;;;2.03;1.83;;;15.40;39.30;;;;;;5030204;28;20210;-86
2022/09/26 14:56:37;;;;;;;1.90;1.70;;;15.40;38.50;;;;;;5031020;28;20290;-86
2022/09/26 14:59:40;;;;;;;3.63;1.60;;;15.30;40.20;;;;;;5026264;28;20295;-85
2022/09/26 15:02:24;;;;;;;1.70;1.60;;;15.30;40.00;;;;;;5014408;28;20254;-86
2022/09/26 15:05:18;;;;;;;2.15;1.95;;;15.30;38.00;;;;;;5028747;28;22068;-85